createdAt,value
2016-10-19T00:00:23.181Z,0
2016-10-19T00:01:33.704Z,0
2016-10-19T00:02:44.120Z,0
2016-10-19T00:03:54.539Z,0
2016-10-19T00:05:04.953Z,0
2016-10-19T00:06:15.369Z,0
2016-10-19T00:07:25.785Z,0
2016-10-19T00:08:36.197Z,0
2016-10-19T00:09:46.626Z,0
2016-10-19T00:12:22.206Z,0
2016-10-19T00:13:32.744Z,0
2016-10-19T00:14:43.322Z,0
2016-10-19T00:15:53.893Z,0
2016-10-19T00:17:04.468Z,0
2016-10-19T00:18:15.002Z,0
2016-10-19T00:19:25.538Z,0
2016-10-19T00:20:36.079Z,0
2016-10-19T00:21:46.618Z,0
2016-10-19T00:22:57.157Z,0
2016-10-19T00:24:07.693Z,0
2016-10-19T00:25:18.231Z,0
2016-10-19T00:26:28.798Z,0
2016-10-19T00:27:53.858Z,0
2016-10-19T00:29:04.490Z,0
2016-10-19T00:30:15.031Z,0
2016-10-19T00:31:25.571Z,0
2016-10-19T00:32:36.110Z,0
2016-10-19T00:33:46.648Z,0
2016-10-19T00:34:57.184Z,0
2016-10-19T00:36:22.242Z,0
2016-10-19T00:37:32.777Z,0
2016-10-19T00:38:43.314Z,0
2016-10-19T00:40:08.380Z,0
2016-10-19T00:41:33.440Z,0
2016-10-19T00:42:43.998Z,0
2016-10-19T00:43:55.033Z,0
2016-10-19T00:45:05.666Z,0
2016-10-19T00:46:16.204Z,0
2016-10-19T00:47:26.742Z,0
2016-10-19T00:48:37.314Z,0
2016-10-19T00:49:47.850Z,0
2016-10-19T00:50:58.488Z,0
2016-10-19T00:52:09.059Z,0
2016-10-19T00:53:34.129Z,0
2016-10-19T00:54:44.663Z,0
2016-10-19T00:55:55.204Z,0
2016-10-19T00:57:05.751Z,0
2016-10-19T00:58:16.289Z,0
2016-10-19T00:59:26.822Z,0
2016-10-19T01:00:37.361Z,0
2016-10-19T01:01:47.997Z,0
2016-10-19T01:02:58.529Z,0
2016-10-19T01:04:09.069Z,0
2016-10-19T01:05:19.601Z,0
2016-10-19T01:06:30.142Z,0
2016-10-19T01:09:05.772Z,0
2016-10-19T01:10:16.307Z,0
2016-10-19T01:11:26.844Z,0
2016-10-19T01:12:37.478Z,0
2016-10-19T01:13:48.051Z,0
2016-10-19T01:14:58.587Z,0
2016-10-19T01:16:09.161Z,0
2016-10-19T01:17:19.699Z,0
2016-10-19T01:18:30.331Z,0
2016-10-19T01:19:40.912Z,0
2016-10-19T01:20:51.946Z,0
2016-10-19T01:22:02.521Z,0
2016-10-19T01:23:13.057Z,0
2016-10-19T01:24:23.600Z,0
2016-10-19T01:25:34.133Z,0
2016-10-19T01:26:44.681Z,0
2016-10-19T01:27:55.250Z,0
2016-10-19T01:29:05.824Z,0
2016-10-19T01:30:16.468Z,0
2016-10-19T01:31:27.000Z,0
2016-10-19T01:32:37.539Z,0
2016-10-19T01:33:48.603Z,0
2016-10-19T01:34:59.135Z,0
2016-10-19T01:36:09.776Z,0
2016-10-19T01:37:20.311Z,0
2016-10-19T01:38:30.849Z,0
2016-10-19T01:39:41.385Z,0
2016-10-19T01:40:51.917Z,0
2016-10-19T01:42:02.455Z,0
2016-10-19T01:43:12.989Z,0
2016-10-19T01:44:23.530Z,0
2016-10-19T01:45:34.072Z,0
2016-10-19T01:46:44.606Z,0
2016-10-19T01:47:55.242Z,0
2016-10-19T01:49:05.776Z,0
2016-10-19T01:50:16.253Z,0
2016-10-19T01:51:26.662Z,0
2016-10-19T01:54:02.143Z,0
2016-10-19T01:55:12.557Z,0
2016-10-19T01:56:37.523Z,0
2016-10-19T01:58:02.484Z,0
2016-10-19T01:59:27.583Z,0
2016-10-19T02:00:38.013Z,0
2016-10-19T02:01:48.431Z,0
2016-10-19T02:02:58.841Z,0
2016-10-19T02:04:09.358Z,0
2016-10-19T02:05:19.696Z,0
2016-10-19T02:06:30.020Z,0
2016-10-19T02:07:40.344Z,0
2016-10-19T02:09:05.239Z,0
2016-10-19T02:10:15.661Z,0
2016-10-19T02:11:25.996Z,0
2016-10-19T02:12:36.322Z,0
2016-10-19T02:13:46.695Z,0
2016-10-19T02:14:57.017Z,0
2016-10-19T02:16:07.446Z,0
2016-10-19T02:17:17.837Z,0
2016-10-19T02:18:28.167Z,0
2016-10-19T02:19:38.497Z,0
2016-10-19T02:20:48.820Z,0
2016-10-19T02:21:59.244Z,0
2016-10-19T02:23:09.605Z,0
2016-10-19T02:24:20.038Z,0
2016-10-19T02:25:30.483Z,0
2016-10-19T02:26:40.925Z,0
2016-10-19T02:28:05.922Z,0
2016-10-19T02:29:16.365Z,0
2016-10-19T02:30:26.813Z,0
2016-10-19T02:31:37.259Z,0
2016-10-19T02:32:47.710Z,0
2016-10-19T02:33:58.158Z,0
2016-10-19T02:35:08.597Z,0
2016-10-19T02:36:19.047Z,0
2016-10-19T02:37:29.491Z,0
2016-10-19T02:38:54.475Z,0
2016-10-19T02:40:04.923Z,0
2016-10-19T02:41:15.404Z,0
2016-10-19T02:42:25.849Z,0
2016-10-19T02:43:36.287Z,0
2016-10-19T02:44:46.777Z,0
2016-10-19T02:45:57.223Z,0
2016-10-19T02:47:07.670Z,0
2016-10-19T02:48:18.147Z,0
2016-10-19T02:49:28.640Z,0
2016-10-19T02:50:39.085Z,0
2016-10-19T02:51:49.530Z,0
2016-10-19T02:52:59.975Z,0
2016-10-19T02:54:10.425Z,0
2016-10-19T02:55:20.966Z,0
2016-10-19T02:56:31.408Z,0
2016-10-19T02:57:41.857Z,0
2016-10-19T02:58:52.309Z,0
2016-10-19T03:00:02.753Z,0
2016-10-19T03:01:13.335Z,0
2016-10-19T03:02:23.773Z,0
2016-10-19T03:03:34.256Z,0
2016-10-19T03:04:44.707Z,0
2016-10-19T03:05:55.150Z,0
2016-10-19T03:07:05.623Z,0
2016-10-19T03:08:16.070Z,0
2016-10-19T03:09:26.514Z,0
2016-10-19T03:10:36.959Z,0
2016-10-19T03:11:47.403Z,0
2016-10-19T03:13:12.443Z,0
2016-10-19T03:14:37.432Z,0
2016-10-19T03:16:02.421Z,0
2016-10-19T03:17:12.874Z,0
2016-10-19T03:18:37.963Z,0
2016-10-19T03:19:48.409Z,0
2016-10-19T03:21:13.403Z,0
2016-10-19T03:22:23.854Z,0
2016-10-19T03:23:34.396Z,0
2016-10-19T03:24:44.846Z,0
2016-10-19T03:25:55.324Z,0
2016-10-19T03:27:05.774Z,0
2016-10-19T03:28:16.219Z,0
2016-10-19T03:29:26.764Z,0
2016-10-19T03:30:37.208Z,0
2016-10-19T03:31:47.544Z,0
2016-10-19T03:32:57.871Z,0
2016-10-19T03:34:08.195Z,0
2016-10-19T03:35:18.533Z,0
2016-10-19T03:36:28.859Z,0
2016-10-19T03:37:39.181Z,0
2016-10-19T03:38:49.511Z,0
2016-10-19T03:40:00.307Z,0
2016-10-19T03:41:10.738Z,0
2016-10-19T03:42:21.568Z,0
2016-10-19T03:43:32.883Z,0
2016-10-19T03:44:43.208Z,0
2016-10-19T03:45:54.002Z,0
2016-10-19T03:47:04.329Z,0
2016-10-19T03:48:14.655Z,0
2016-10-19T03:49:24.977Z,0
2016-10-19T03:50:35.308Z,0
2016-10-19T03:51:45.638Z,0
2016-10-19T03:52:56.001Z,0
2016-10-19T03:54:06.324Z,0
2016-10-19T03:55:16.654Z,0
2016-10-19T03:56:26.982Z,0
2016-10-19T03:57:37.306Z,0
2016-10-19T03:58:47.627Z,0
2016-10-19T03:59:57.959Z,0
2016-10-19T04:01:08.289Z,0
2016-10-19T04:02:18.608Z,0
2016-10-19T04:03:28.936Z,0
2016-10-19T04:04:39.263Z,0
2016-10-19T04:05:49.595Z,0
2016-10-19T04:06:59.919Z,0
2016-10-19T04:08:10.280Z,0
2016-10-19T04:09:20.609Z,0
2016-10-19T04:10:31.036Z,0
2016-10-19T04:11:41.362Z,0
2016-10-19T04:12:51.688Z,0
2016-10-19T04:14:02.007Z,0
2016-10-19T04:15:12.929Z,0
2016-10-19T04:16:23.350Z,0
2016-10-19T04:17:33.681Z,0
2016-10-19T04:18:44.006Z,0
2016-10-19T04:19:54.420Z,0
2016-10-19T04:21:04.840Z,0
2016-10-19T04:22:15.354Z,0
2016-10-19T04:23:25.770Z,0
2016-10-19T04:24:36.185Z,0
2016-10-19T04:26:01.148Z,0
2016-10-19T04:27:11.575Z,0
2016-10-19T04:28:21.990Z,0
2016-10-19T04:29:32.398Z,0
2016-10-19T04:30:42.817Z,0
2016-10-19T04:31:53.236Z,0
2016-10-19T04:33:03.649Z,0
2016-10-19T04:34:14.071Z,0
2016-10-19T04:35:24.486Z,0
2016-10-19T04:36:34.898Z,0
2016-10-19T04:37:45.311Z,0
2016-10-19T04:38:55.826Z,0
2016-10-19T04:40:06.294Z,0
2016-10-19T04:41:16.748Z,0
2016-10-19T04:42:27.204Z,0
2016-10-19T04:43:37.623Z,0
2016-10-19T04:44:48.176Z,0
2016-10-19T04:45:58.591Z,0
2016-10-19T04:47:09.002Z,0
2016-10-19T04:48:19.420Z,0
2016-10-19T04:49:29.836Z,0
2016-10-19T04:50:40.356Z,0
2016-10-19T04:51:50.770Z,0
2016-10-19T04:53:01.183Z,0
2016-10-19T04:54:11.601Z,0
2016-10-19T04:55:36.697Z,0
2016-10-19T04:56:47.147Z,0
2016-10-19T04:57:57.556Z,0
2016-10-19T04:59:07.979Z,0
2016-10-19T05:00:18.396Z,0
2016-10-19T05:01:28.807Z,0
2016-10-19T05:02:39.222Z,0
2016-10-19T05:03:49.673Z,0
2016-10-19T05:05:00.000Z,0
2016-10-19T05:06:24.995Z,0
2016-10-19T05:07:35.325Z,0
2016-10-19T05:08:45.652Z,0
2016-10-19T05:09:56.005Z,0
2016-10-19T05:11:06.439Z,0
2016-10-19T05:12:16.982Z,0
2016-10-19T05:13:27.421Z,0
2016-10-19T05:14:37.877Z,0
2016-10-19T05:15:48.322Z,0
2016-10-19T05:16:58.769Z,0
2016-10-19T05:18:09.315Z,0
2016-10-19T05:19:19.792Z,0
2016-10-19T05:20:30.234Z,0
2016-10-19T05:21:40.687Z,0
2016-10-19T05:23:05.671Z,0
2016-10-19T05:24:16.120Z,0
2016-10-19T05:25:26.563Z,0
2016-10-19T05:26:37.003Z,0
2016-10-19T05:27:47.450Z,0
2016-10-19T05:28:57.891Z,0
2016-10-19T05:30:08.342Z,0
2016-10-19T05:31:18.781Z,0
2016-10-19T05:32:29.225Z,0
2016-10-19T05:33:39.668Z,0
2016-10-19T05:34:50.108Z,0
2016-10-19T05:36:00.551Z,0
2016-10-19T05:37:25.537Z,0
2016-10-19T05:38:35.987Z,0
2016-10-19T05:39:46.426Z,0
2016-10-19T05:40:56.874Z,0
2016-10-19T05:42:07.310Z,0
2016-10-19T05:43:17.758Z,0
2016-10-19T05:44:28.236Z,0
2016-10-19T05:45:38.588Z,0
2016-10-19T05:46:48.911Z,0
2016-10-19T05:47:59.235Z,0
2016-10-19T05:49:09.581Z,0
2016-10-19T05:50:19.909Z,0
2016-10-19T05:51:30.337Z,0
2016-10-19T05:52:40.669Z,0
2016-10-19T05:53:50.997Z,0
2016-10-19T05:55:01.322Z,0
2016-10-19T05:56:11.656Z,0
2016-10-19T05:57:22.081Z,0
2016-10-19T05:58:32.412Z,0
2016-10-19T05:59:42.776Z,0
2016-10-19T06:00:53.109Z,0
2016-10-19T06:02:03.920Z,0
2016-10-19T06:03:14.243Z,0
2016-10-19T06:04:24.567Z,0
2016-10-19T06:06:59.804Z,0
2016-10-19T06:08:10.230Z,0
2016-10-19T06:09:20.591Z,0
2016-10-19T06:10:30.919Z,0
2016-10-19T06:11:41.246Z,0
2016-10-19T06:13:06.138Z,0
2016-10-19T06:14:16.560Z,0
2016-10-19T06:15:26.884Z,0
2016-10-19T06:16:37.211Z,0
2016-10-19T06:17:47.568Z,0
2016-10-19T06:18:57.892Z,0
2016-10-19T06:20:08.424Z,0
2016-10-19T06:21:18.880Z,0
2016-10-19T06:22:29.325Z,0
2016-10-19T06:23:39.767Z,0
2016-10-19T06:24:50.208Z,0
2016-10-19T06:26:00.754Z,0
2016-10-19T06:27:11.200Z,0
2016-10-19T06:28:21.645Z,0
2016-10-19T06:29:32.087Z,0
2016-10-19T06:30:42.533Z,0
2016-10-19T06:31:53.116Z,0
2016-10-19T06:33:18.107Z,0
2016-10-19T06:34:29.040Z,0
2016-10-19T06:35:39.886Z,0
2016-10-19T06:36:50.429Z,0
2016-10-19T06:38:00.875Z,0
2016-10-19T06:39:11.322Z,0
2016-10-19T06:40:21.770Z,0
2016-10-19T06:41:32.216Z,0
2016-10-19T06:42:42.765Z,0
2016-10-19T06:43:53.211Z,0
2016-10-19T06:45:03.660Z,0
2016-10-19T06:46:14.107Z,0
2016-10-19T06:47:39.196Z,0
2016-10-19T06:48:49.647Z,0
2016-10-19T06:50:00.085Z,0
2016-10-19T06:51:10.526Z,0
2016-10-19T06:52:20.968Z,0
2016-10-19T06:53:31.417Z,0
2016-10-19T06:54:41.863Z,0
2016-10-19T06:55:52.803Z,0
2016-10-19T06:57:03.250Z,0
2016-10-19T06:58:13.696Z,0
2016-10-19T06:59:24.139Z,0
2016-10-19T07:00:34.585Z,0
2016-10-19T07:01:45.031Z,0
2016-10-19T07:02:55.477Z,0
2016-10-19T07:04:05.938Z,0
2016-10-19T07:05:16.385Z,0
2016-10-19T07:06:26.826Z,0
2016-10-19T07:07:37.280Z,0
2016-10-19T07:08:47.726Z,0
2016-10-19T07:09:58.167Z,0
2016-10-19T07:11:08.611Z,0
2016-10-19T07:12:19.050Z,0
2016-10-19T07:13:29.491Z,0
2016-10-19T07:14:39.937Z,0
2016-10-19T07:15:50.419Z,0
2016-10-19T07:17:00.964Z,0
2016-10-19T07:18:11.407Z,0
2016-10-19T07:19:21.854Z,0
2016-10-19T07:20:32.300Z,0
2016-10-19T07:21:42.751Z,0
2016-10-19T07:23:07.772Z,0
2016-10-19T07:24:18.223Z,0
2016-10-19T07:25:28.711Z,0
2016-10-19T07:26:39.148Z,0
2016-10-19T07:27:49.590Z,0
2016-10-19T07:29:00.028Z,0
2016-10-19T07:30:10.477Z,0
2016-10-19T07:31:20.924Z,0
2016-10-19T07:32:31.373Z,0
2016-10-19T07:33:41.917Z,0
2016-10-19T07:34:52.393Z,0
2016-10-19T07:36:02.842Z,0
2016-10-19T07:37:13.293Z,0
2016-10-19T07:38:23.740Z,0
2016-10-19T07:39:34.283Z,0
2016-10-19T07:40:44.762Z,0
2016-10-19T07:41:55.204Z,0
2016-10-19T07:43:05.642Z,0
2016-10-19T07:44:16.090Z,0
2016-10-19T07:45:26.531Z,0
2016-10-19T07:46:37.029Z,0
2016-10-19T07:47:47.475Z,0
2016-10-19T07:49:12.512Z,0
2016-10-19T07:50:22.949Z,0
2016-10-19T07:51:33.425Z,0
2016-10-19T07:52:43.871Z,0
2016-10-19T07:53:54.318Z,0
2016-10-19T07:55:04.768Z,0
2016-10-19T07:56:15.309Z,0
2016-10-19T07:57:25.750Z,0
2016-10-19T07:58:36.091Z,0
2016-10-19T07:59:46.417Z,0
2016-10-19T08:00:56.777Z,0
2016-10-19T08:02:07.201Z,0
2016-10-19T08:03:17.523Z,0
2016-10-19T08:04:27.912Z,0
2016-10-19T08:05:38.815Z,0
2016-10-19T08:06:49.231Z,0
2016-10-19T08:07:59.750Z,0
2016-10-19T08:09:10.194Z,0
2016-10-19T08:10:20.610Z,0
2016-10-19T08:11:45.578Z,0
2016-10-19T08:12:56.089Z,0
2016-10-19T08:14:06.541Z,0
2016-10-19T08:15:16.953Z,0
2016-10-19T08:16:27.371Z,0
2016-10-19T08:17:37.783Z,0
2016-10-19T08:18:48.780Z,0
2016-10-19T08:19:59.196Z,0
2016-10-19T08:21:09.610Z,0
2016-10-19T08:22:20.021Z,0
2016-10-19T08:23:30.469Z,0
2016-10-19T08:24:40.883Z,0
2016-10-19T08:25:51.298Z,0
2016-10-19T08:27:01.711Z,0
2016-10-19T08:28:12.123Z,0
2016-10-19T08:29:22.535Z,0
2016-10-19T08:30:33.053Z,0
2016-10-19T08:31:43.497Z,0
2016-10-19T08:32:53.916Z,0
2016-10-19T08:34:04.332Z,0
2016-10-19T08:35:14.769Z,0
2016-10-19T08:36:25.285Z,0
2016-10-19T08:37:35.703Z,0
2016-10-19T08:38:46.119Z,0
2016-10-19T08:39:56.534Z,0
2016-10-19T08:41:06.953Z,0
2016-10-19T08:42:17.509Z,0
2016-10-19T08:43:27.920Z,0
2016-10-19T08:44:52.879Z,0
2016-10-19T08:46:03.294Z,0
2016-10-19T08:47:13.811Z,0
2016-10-19T08:48:24.231Z,0
2016-10-19T08:49:34.645Z,0
2016-10-19T08:50:45.092Z,0
2016-10-19T08:51:55.509Z,0
2016-10-19T08:53:05.922Z,0
2016-10-19T08:54:16.342Z,0
2016-10-19T08:55:26.759Z,0
2016-10-19T08:56:37.664Z,0
2016-10-19T08:57:48.077Z,0
2016-10-19T08:58:58.599Z,0
2016-10-19T09:00:23.562Z,0
2016-10-19T09:01:33.987Z,0
2016-10-19T09:02:44.403Z,0
2016-10-19T09:03:54.815Z,0
2016-10-19T09:05:05.279Z,0
2016-10-19T09:06:30.328Z,5
2016-10-19T09:07:40.865Z,5
2016-10-19T09:08:51.498Z,5
2016-10-19T09:10:02.549Z,5
2016-10-19T09:12:38.160Z,5
2016-10-19T09:13:48.694Z,5
2016-10-19T09:14:59.405Z,5
2016-10-19T09:16:09.942Z,5
2016-10-19T09:17:35.000Z,5
2016-10-19T09:18:45.537Z,5
2016-10-19T09:20:25.124Z,5
2016-10-19T09:21:35.667Z,5
2016-10-19T09:22:46.242Z,5
2016-10-19T09:23:56.776Z,5
2016-10-19T09:25:07.356Z,5
2016-10-19T09:26:17.896Z,5
2016-10-19T09:27:28.463Z,5
2016-10-19T09:28:38.997Z,5
2016-10-19T09:29:49.564Z,5
2016-10-19T09:31:00.207Z,5
2016-10-19T09:32:10.743Z,5
2016-10-19T09:33:21.284Z,5
2016-10-19T09:34:31.726Z,5
2016-10-19T09:35:42.173Z,5
2016-10-19T09:36:52.714Z,5
2016-10-19T09:38:03.160Z,5
2016-10-19T09:39:13.608Z,5
2016-10-19T09:40:24.103Z,5
2016-10-19T09:41:35.047Z,5
2016-10-19T09:42:45.500Z,5
2016-10-19T09:43:56.438Z,5
2016-10-19T09:45:06.896Z,5
2016-10-19T09:46:17.341Z,5
2016-10-19T09:47:27.790Z,5
2016-10-19T09:48:38.234Z,5
2016-10-19T09:49:48.686Z,5
2016-10-19T09:50:59.135Z,5
2016-10-19T09:52:09.581Z,5
2016-10-19T09:53:20.030Z,5
2016-10-19T09:54:30.480Z,5
2016-10-19T09:55:40.924Z,10
2016-10-19T09:56:51.375Z,10
2016-10-19T09:58:01.817Z,10
2016-10-19T09:59:12.294Z,10
2016-10-19T10:00:22.844Z,10
2016-10-19T10:01:33.299Z,10
2016-10-19T10:02:43.740Z,10
2016-10-19T10:03:54.192Z,10
2016-10-19T10:05:04.639Z,10
2016-10-19T10:06:15.188Z,10
2016-10-19T10:07:26.116Z,10
2016-10-19T10:08:36.562Z,10
2016-10-19T10:09:47.010Z,10
2016-10-19T10:10:57.455Z,10
2016-10-19T10:12:07.899Z,10
2016-10-19T10:13:18.382Z,10
2016-10-19T10:14:28.828Z,10
2016-10-19T10:15:39.272Z,10
2016-10-19T10:16:49.715Z,10
2016-10-19T10:18:00.160Z,10
2016-10-19T10:19:10.601Z,10
2016-10-19T10:20:21.043Z,10
2016-10-19T10:21:31.490Z,10
2016-10-19T10:22:41.934Z,15
2016-10-19T10:23:52.513Z,15
2016-10-19T10:25:02.955Z,15
2016-10-19T10:26:13.396Z,15
2016-10-19T10:27:23.842Z,15
2016-10-19T10:29:03.372Z,15
2016-10-19T10:30:13.822Z,15
2016-10-19T10:31:24.262Z,15
2016-10-19T10:32:34.704Z,15
2016-10-19T10:33:45.147Z,15
2016-10-19T10:34:55.589Z,15
2016-10-19T10:36:06.594Z,15
2016-10-19T10:37:17.547Z,15
2016-10-19T10:38:28.001Z,20
2016-10-19T10:39:38.451Z,20
2016-10-19T10:40:48.892Z,20
2016-10-19T10:41:59.337Z,20
2016-10-19T10:43:24.325Z,20
2016-10-19T10:44:34.767Z,20
2016-10-19T10:45:45.310Z,20
2016-10-19T10:46:56.244Z,20
2016-10-19T10:48:06.695Z,20
2016-10-19T10:49:17.167Z,20
2016-10-19T10:50:27.612Z,20
2016-10-19T10:51:38.158Z,20
2016-10-19T10:52:49.002Z,20
2016-10-19T10:53:59.455Z,20
2016-10-19T10:55:24.448Z,20
2016-10-19T10:56:34.993Z,20
2016-10-19T10:57:45.437Z,20
2016-10-19T10:58:55.922Z,20
2016-10-19T11:00:06.387Z,20
2016-10-19T11:01:16.837Z,20
2016-10-19T11:02:27.287Z,20
2016-10-19T11:03:38.220Z,20
2016-10-19T11:04:48.764Z,20
2016-10-19T11:05:59.803Z,20
2016-10-19T11:07:10.378Z,20
2016-10-19T11:08:35.437Z,20
2016-10-19T11:09:45.983Z,20
2016-10-19T11:10:56.524Z,20
2016-10-19T11:12:07.069Z,20
2016-10-19T11:13:17.729Z,20
2016-10-19T11:14:28.288Z,20
2016-10-19T11:15:38.836Z,20
2016-10-19T11:16:49.378Z,20
2016-10-19T11:17:59.891Z,20
2016-10-19T11:19:10.418Z,20
2016-10-19T11:20:21.608Z,20
2016-10-19T11:21:33.550Z,20
2016-10-19T11:22:46.685Z,20
2016-10-19T11:23:58.162Z,20
2016-10-19T11:25:10.163Z,20
2016-10-19T11:26:36.351Z,20
2016-10-19T11:27:48.574Z,20
2016-10-19T11:28:59.997Z,20
2016-10-19T11:30:10.606Z,20
2016-10-19T11:31:36.096Z,20
2016-10-19T11:32:49.045Z,20
2016-10-19T11:34:01.699Z,20
2016-10-19T11:35:12.753Z,20
2016-10-19T11:36:23.661Z,20
2016-10-19T11:37:34.567Z,20
2016-10-19T11:38:45.480Z,20
2016-10-19T11:39:55.902Z,20
2016-10-19T11:41:06.455Z,20
2016-10-19T11:42:16.909Z,20
2016-10-19T11:43:27.333Z,20
2016-10-19T11:44:37.746Z,20
2016-10-19T11:45:48.165Z,20
2016-10-19T11:46:58.680Z,20
2016-10-19T11:48:09.095Z,20
2016-10-19T11:49:19.422Z,25
2016-10-19T11:50:30.221Z,25
2016-10-19T11:51:55.218Z,25
2016-10-19T11:53:05.547Z,25
2016-10-19T11:54:15.870Z,25
2016-10-19T11:55:26.200Z,25
2016-10-19T11:56:36.529Z,25
2016-10-19T11:57:46.863Z,20
2016-10-19T11:58:57.259Z,20
2016-10-19T12:00:08.247Z,20
2016-10-19T12:01:18.570Z,20
2016-10-19T12:02:28.942Z,20
2016-10-19T12:03:39.759Z,20
2016-10-19T12:04:50.132Z,20
2016-10-19T12:06:00.494Z,20
2016-10-19T12:07:10.818Z,20
2016-10-19T12:08:21.180Z,20
2016-10-19T12:09:31.515Z,20
2016-10-19T12:10:41.840Z,20
2016-10-19T12:11:52.163Z,25
2016-10-19T12:13:02.493Z,25
2016-10-19T12:14:12.825Z,35
2016-10-19T12:15:23.264Z,35
2016-10-19T12:16:33.592Z,40
2016-10-19T12:17:43.917Z,40
2016-10-19T12:18:54.246Z,45
2016-10-19T12:20:04.573Z,45
2016-10-19T12:21:15.024Z,45
2016-10-19T12:22:25.383Z,45
2016-10-19T12:23:35.713Z,50
2016-10-19T12:24:46.040Z,50
2016-10-19T12:25:56.373Z,55
2016-10-19T12:27:06.814Z,55
2016-10-19T12:28:17.144Z,55
2016-10-19T12:29:27.473Z,60
2016-10-19T12:30:37.837Z,60
2016-10-19T12:31:48.173Z,60
2016-10-19T12:32:58.499Z,60
2016-10-19T12:34:09.323Z,60
2016-10-19T12:35:34.261Z,60
2016-10-19T12:36:45.086Z,60
2016-10-19T12:37:55.722Z,60
2016-10-19T12:39:06.733Z,60
2016-10-19T12:40:17.067Z,60
2016-10-19T12:41:27.395Z,60
2016-10-19T12:42:37.733Z,70
2016-10-19T12:43:48.543Z,65
2016-10-19T12:44:59.079Z,65
2016-10-19T12:46:09.413Z,65
2016-10-19T12:47:19.764Z,65
2016-10-19T12:48:30.135Z,65
2016-10-19T12:49:40.564Z,70
2016-10-19T12:50:51.088Z,70
2016-10-19T12:52:01.419Z,70
2016-10-19T12:53:11.773Z,70
2016-10-19T12:54:22.110Z,70
2016-10-19T12:55:32.448Z,70
2016-10-19T12:56:42.774Z,70
2016-10-19T12:59:18.012Z,75
2016-10-19T13:00:43.025Z,75
2016-10-19T13:01:53.878Z,75
2016-10-19T13:03:04.684Z,75
2016-10-19T13:04:15.039Z,75
2016-10-19T13:05:25.377Z,70
2016-10-19T13:06:35.711Z,75
2016-10-19T13:07:46.527Z,75
2016-10-19T13:08:56.856Z,75
2016-10-19T13:10:07.668Z,75
2016-10-19T13:11:18.007Z,75
2016-10-19T13:12:28.346Z,75
2016-10-19T13:13:38.682Z,75
2016-10-19T13:14:49.049Z,75
2016-10-19T13:15:59.431Z,75
2016-10-19T13:17:09.768Z,70
2016-10-19T13:18:20.103Z,75
2016-10-19T13:19:45.083Z,75
2016-10-19T13:20:55.989Z,75
2016-10-19T13:22:06.428Z,75
2016-10-19T13:23:16.853Z,75
2016-10-19T13:24:27.282Z,75
2016-10-19T13:25:37.717Z,75
2016-10-19T13:26:48.139Z,75
2016-10-19T13:27:58.562Z,75
2016-10-19T13:29:09.025Z,75
2016-10-19T13:30:19.657Z,75
2016-10-19T13:32:55.081Z,75
2016-10-19T13:34:05.612Z,75
2016-10-19T13:35:16.156Z,75
2016-10-19T13:36:26.748Z,75
2016-10-19T13:37:51.821Z,75
2016-10-19T13:39:02.380Z,75
2016-10-19T13:40:13.429Z,75
2016-10-19T13:41:24.005Z,75
2016-10-19T13:42:34.549Z,75
2016-10-19T13:43:45.098Z,75
2016-10-19T13:44:55.654Z,75
2016-10-19T13:46:06.311Z,75
2016-10-19T13:47:31.879Z,75
2016-10-19T13:48:42.430Z,75
2016-10-19T13:49:52.978Z,75
2016-10-19T13:51:03.532Z,75
2016-10-19T13:52:14.080Z,75
2016-10-19T13:53:24.625Z,75
2016-10-19T13:54:35.172Z,75
2016-10-19T13:55:45.761Z,75
2016-10-19T13:56:56.310Z,75
2016-10-19T13:58:06.905Z,75
2016-10-19T14:01:01.435Z,75
